NCAR-RAP Real-Time Weather Data

Output produced by METARs form (10 February 2016  19:53 UTC)
found at http://weather.rap.ucar.edu/surface/
 
Conditions at: K4O4 observed 10 February 2016  19:35 UTC
Temperature: 13.0°C (55°F)
Dewpoint: -4.0°C (25°F) [RH = 30%]
Pressure (altimeter): 30.20 inches Hg (1022.8 mb)
Winds: from the WSW (240 degrees) at 13 MPH (11 knots; 5.7 m/s)
gusting to 17 MPH (15 knots; 7.8 m/s)
Visibility: 10 or more miles (16+ km)
Ceiling: at least 12,000 feet AGL
Clouds: sky clear below 12,000 feet AGL
Present Weather: automated observation with no human augmentation;
there may or may not be significant weather present at this time
K4O4 101935Z AUTO 24011G15KT 10SM CLR 13/M04 A3020 RMK AO2